Terminal Aerodrome Forecast
Issued by NWS Paducah, KY

Home | Current Version | Previous Version | Text Only | Print | Product List | Glossary On
Versions: 1 2 3 4 5 6 7 8 9 10 11 12 13 14 15 16 17 18 19
000
FTUS43 KPAH 221139
TAFPAH
TAF
KPAH 221139Z 2212/2312 01008KT 5SM -SHRA BR BKN011 OVC023
     FM221400 04007KT 4SM BR OVC017
      TEMPO 2217/2221 5SM -SHRA BR OVC008
     FM222100 12005KT P6SM OVC018
      TEMPO 2304/2308 15008KT 3SM -DZ BR OVC018
     FM230800 18011KT P6SM BKN011 OVC030=

USA.gov is the U.S. government's official web portal to all federal, state and local government web resources and services.